Bass River, Massachusetts
Current Conditions -  °F | °C
As of 12:56 AM on Thursday 29 Jan 2015 (Local Time) from KHYA Reporting Station
Overcast Overcast  
Wind Chill: -9°   Ceiling: 2800
Heat Index: -4°   Visibility: 8mi
Dew Point: -9°   Wind: 8mph
Humidity: 71%   Direction: 310°NW
Pressure: 30.18"   Gusts: NA
Location:  41.6739°N, 70.1961°W
Report Text: KHYA 290556Z AUTO 31007KT 8SM OVC028 M04/M09 A3018 RMK AO2 SLP223 T10441089 11033 21056 51017
Loading
Personal Weather Stations






























Interactive Weather Map New forecast layout! Learn more

10-Day Weather Forecast

Advertisements
Track Severe Weather on mobile